Washburn, TN (37888)

10:23 PM EDT on September 15, 2014 (GMT -0400)
Washburn TN US | Change Station
CLOSE
Current Station
Personal Weather Station
Location: Washburn, TN
Elevation: 1450 ft
Nearby Weather Stations

Elev 1450 ft 36.29 °N, 83.61 °W | Updated 3 minutes ago

Partly Cloudy
Partly Cloudy
66.3 °F
Feels Like 66.3 °F
N
0.0
Wind Variable Wind from West
Gusts 0.0 mph

Today
High -- | Low -- °F
--% Chance of Precip.
Yesterday
High -- | Low -- °F
Precip. -- in
7:16 AM 7:41 PM
Waning Gibbous, 50% visible
Pressure 30.16 in
Visibility 10.0 miles
Clouds Mostly Cloudy 700 ft
Dew Point 61 °F
Humidity 83%
Rainfall 0.02 in
Snow Depth Not available.
UV 0 out of 12
Pollen 7.80 out of 12
Ozone Good
PM2.5 Moderate
Flu Activity Not available.
METAR K1A6 160215Z AUTO 31003KT 10SM BKN007 18/17 A3016 RMK AO2 T01800173

More Conditions Fewer Conditions

Pressure 30.16 in
Visibility 10.0 miles
Clouds Mostly Cloudy 700 ft
Dew Point 61 °F
Humidity 83%
Rainfall 0.02 in
Snow Depth Not available.
UV 0 out of 12
Pollen 7.80 out of 12
Ozone Good
PM2.5 Moderate
Flu Activity Not available.
METAR K1A6 160215Z AUTO 31003KT 10SM BKN007 18/17 A3016 RMK AO2 T01800173

More Conditions Fewer Conditions

10-Day Weather Forecast

Almanac

Astronomy

Sep. 15, 2014 Rise Set
Actual Time 7:16 AM EDT 7:41 PM EDT
Civil Twilight 6:50 AM EDT 8:07 PM EDT
Nautical Twilight 6:20 AM EDT 8:37 PM EDT
Astronomical Twilight 5:49 AM EDT 9:08 PM EDT
Moon No Moon Rise 2:05 PM EDT (9/15)
Length of Visible Light 13h 16m
Length of Day
12h 24m
Tomorrow will be 2m 17s shorter.
Waning Gibbous, 50% of the Moon is Illuminated
Today
Waning Gibbous
Sep 24
New
Oct 1
First Quarter
Oct 8
Full
Oct 15
Last Quarter

Today's Extremes

State Highs State Lows

Community

WunderPhotos

Upload Photos

1,753,666 photos uploaded!

Nearby

Air Quality

  Air Quality AQ Index Pollutant
Yesterday Moderate
PM2.5
Yesterday Good
OZONE
Current Moderate
PM2.5
Current Good
OZONE
Monday Moderate
PM2.5
Monday Good
OZONE
Tuesday Moderate
PM2.5
Tuesday Good
OZONE
Wednesday Good
PM2.5
Wednesday Good
OZONE

Snow Depth

Station Depth Elevation
No new snow has been reported.

Earthquake Activity

City Distance Mag. Time & Date
No recent earthquake activity has been reported nearby.
Minimum magnitude displayed is 2.5.

Coastal Water Temperatures

Place Temperature
No Stations Reporting

Nearby Weather Stations